Time;durP1;ratioP1;P1;durP2;ratioP2;P2;SDS_P1;SDS_P2;PMS_P1;PMS_P2;Temp;Humidity;BMP_temperature;BMP_pressure;BME280_temperature;BME280_humidity;BME280_pressure;Samples;Min_cycle;Max_cycle;Signal;HPM_P1;HPM_P2
2022/01/20 00:00:17;;;;;;;;;;;;;;;;;;5070567;28;20413;-65
2022/01/20 00:02:43;;;;;;;18.77;2.40;;;;;;;;;;5070820;28;19969;-65
2022/01/20 00:26:54;;;;;;;11.88;1.52;;;;;;;;;;5070370;28;20139;-65
2022/01/20 00:29:30;;;;;;;14.98;1.90;;;;;;;;;;5069784;28;20044;-65
2022/01/20 00:32:09;;;;;;;13.45;1.92;;;;;;;;;;5070500;28;20052;-65
2022/01/20 00:37:21;;;;;;;8.40;1.85;;;;;;;;;;5070050;28;20056;-65
2022/01/20 00:39:48;;;;;;;9.90;2.25;;;;;;;;;;5070523;28;20047;-65
2022/01/20 00:42:15;;;;;;;15.15;2.00;;;;;;;;;;5103148;28;20132;-65
2022/01/20 00:44:41;;;;;;;9.55;1.70;;;;;;;;;;5069945;28;20553;-65
2022/01/20 00:47:07;;;;;;;14.13;1.90;;;;;;;;;;5070882;28;20048;-65
2022/01/20 00:49:33;;;;;;;12.57;1.65;;;;;;;;;;5070420;28;20041;-65
2022/01/20 00:52:00;;;;;;;10.95;2.65;;;;;;;;;;5069603;28;20471;-65
2022/01/20 00:54:26;;;;;;;12.45;1.67;;;;;;;;;;5070375;28;20036;-65
2022/01/20 00:56:52;;;;;;;14.68;1.35;;;;;;;;;;5070391;28;20046;-65
2022/01/20 00:59:18;;;;;;;11.98;2.33;;;;;;;;;;5069710;28;20445;-65
2022/01/20 01:01:44;;;;;;;16.15;1.77;;;;;;;;;;5070357;28;20168;-65
2022/01/20 01:04:10;;;;;;;13.75;2.33;;;;;;;;;;5070172;28;20119;-65
2022/01/20 01:07:00;;;;;;;10.93;1.70;;;;;;;;;;5069432;28;20128;-65
2022/01/20 01:09:27;;;;;;;17.58;2.10;;;;;;;;;;5070025;28;20048;-65
2022/01/20 01:11:58;;;;;;;16.17;1.92;;;;;;;;;;5070038;28;20037;-65
2022/01/20 01:14:24;;;;;;;16.20;2.72;;;;;;;;;;5069548;28;20032;-65
2022/01/20 01:24:38;;;;;;;19.85;1.77;;;;;;;;;;5069762;28;20056;-65
2022/01/20 01:27:05;;;;;;;13.52;1.85;;;;;;;;;;5069762;28;20053;-65
2022/01/20 01:30:20;;;;;;;14.68;2.33;;;;;;;;;;5069141;28;20437;-65
2022/01/20 01:32:24;;;;;;;19.63;2.70;;;;;;;;;;5063916;28;20052;-65
2022/01/20 01:34:52;;;;;;;10.18;1.92;;;;;;;;;;5069836;28;20072;-65
2022/01/20 01:39:51;;;;;;;14.57;1.92;;;;;;;;;;5070015;28;20049;-65
2022/01/20 01:42:24;;;;;;;8.25;1.50;;;;;;;;;;5068800;28;20119;-65
2022/01/20 01:44:52;;;;;;;11.90;1.90;;;;;;;;;;5068530;28;20116;-65
2022/01/20 01:47:18;;;;;;;8.52;1.80;;;;;;;;;;5069844;28;20033;-65
2022/01/20 01:49:44;;;;;;;11.45;1.50;;;;;;;;;;5069478;28;20121;-65
2022/01/20 01:52:10;;;;;;;14.43;2.03;;;;;;;;;;5069476;28;20041;-65
2022/01/20 01:54:36;;;;;;;18.13;1.58;;;;;;;;;;5072155;28;20036;-65
2022/01/20 01:57:05;;;;;;;10.02;1.08;;;;;;;;;;5073586;28;20039;-65
2022/01/20 01:59:32;;;;;;;7.40;1.17;;;;;;;;;;5072815;28;20084;-65
2022/01/20 02:01:58;;;;;;;12.90;1.48;;;;;;;;;;5073181;28;20169;-65
2022/01/20 02:04:24;;;;;;;7.10;0.90;;;;;;;;;;5073392;28;20402;-65
2022/01/20 02:07:24;;;;;;;8.10;1.05;;;;;;;;;;5072373;28;20044;-65
2022/01/20 02:17:51;;;;;;;8.05;1.02;;;;;;;;;;5072466;28;20129;-65
2022/01/20 02:20:45;;;;;;;5.35;1.02;;;;;;;;;;5072531;28;20074;-65
2022/01/20 02:23:11;;;;;;;9.25;1.00;;;;;;;;;;5073040;28;20048;-65
2022/01/20 02:25:37;;;;;;;8.63;1.42;;;;;;;;;;5072839;28;20044;-65
2022/01/20 02:28:08;;;;;;;6.78;1.23;;;;;;;;;;5072476;28;20143;-65
2022/01/20 02:30:34;;;;;;;10.15;1.73;;;;;;;;;;5072798;28;20044;-65
2022/01/20 02:33:05;;;;;;;11.20;1.13;;;;;;;;;;5072817;28;20528;-65
2022/01/20 02:35:33;;;;;;;13.80;1.60;;;;;;;;;;5072095;28;20093;-65
2022/01/20 02:38:07;;;;;;;11.02;1.30;;;;;;;;;;5072703;28;20040;-65
2022/01/20 02:45:53;;;;;;;7.57;1.48;;;;;;;;;;5072602;28;20094;-65
2022/01/20 02:48:22;;;;;;;5.88;1.23;;;;;;;;;;5072452;28;20041;-65
2022/01/20 02:50:48;;;;;;;8.07;1.08;;;;;;;;;;5087539;28;20045;-65
2022/01/20 02:53:14;;;;;;;7.00;1.67;;;;;;;;;;5072632;28;20041;-65
2022/01/20 02:55:40;;;;;;;7.20;1.17;;;;;;;;;;5072534;28;20462;-65
2022/01/20 02:58:07;;;;;;;14.40;1.80;;;;;;;;;;5071792;28;20046;-65
2022/01/20 03:00:34;;;;;;;8.18;1.65;;;;;;;;;;5072357;28;20405;-65
2022/01/20 03:03:00;;;;;;;15.85;1.88;;;;;;;;;;5072396;28;20041;-65
2022/01/20 03:05:27;;;;;;;10.32;1.40;;;;;;;;;;5103012;28;20072;-65
2022/01/20 03:07:53;;;;;;;19.13;2.63;;;;;;;;;;5104711;28;20119;-65
2022/01/20 03:10:19;;;;;;;11.20;1.58;;;;;;;;;;5072009;28;20032;-65
2022/01/20 03:12:45;;;;;;;10.43;1.48;;;;;;;;;;5071266;28;20036;-65
2022/01/20 03:15:11;;;;;;;16.95;1.67;;;;;;;;;;5072108;28;20452;-65
2022/01/20 03:17:37;;;;;;;11.43;2.25;;;;;;;;;;5072062;28;20036;-65
2022/01/20 03:20:04;;;;;;;12.30;2.03;;;;;;;;;;5071443;28;20047;-65
2022/01/20 03:22:30;;;;;;;14.43;2.08;;;;;;;;;;5071918;28;20040;-65
2022/01/20 03:24:57;;;;;;;13.63;3.10;;;;;;;;;;5071943;28;20056;-65
2022/01/20 03:27:23;;;;;;;10.13;2.03;;;;;;;;;;5052677;28;20053;-65
2022/01/20 03:29:49;;;;;;;20.33;3.22;;;;;;;;;;5051521;28;20116;-65
2022/01/20 03:32:15;;;;;;;18.73;2.33;;;;;;;;;;5051841;28;20407;-65
2022/01/20 03:34:42;;;;;;;14.15;2.33;;;;;;;;;;5050977;28;20040;-65
2022/01/20 03:37:08;;;;;;;18.65;2.28;;;;;;;;;;5051758;28;20504;-65
2022/01/20 03:39:34;;;;;;;20.15;2.50;;;;;;;;;;5051904;28;20083;-66
2022/01/20 03:42:00;;;;;;;16.05;2.17;;;;;;;;;;5051112;28;20468;-65
2022/01/20 03:44:26;;;;;;;22.23;3.20;;;;;;;;;;5051630;28;20051;-65
2022/01/20 03:46:52;;;;;;;23.48;3.00;;;;;;;;;;5051450;28;20045;-65
2022/01/20 03:49:34;;;;;;;25.20;4.00;;;;;;;;;;5050341;28;20098;-65
2022/01/20 03:52:00;;;;;;;;;;;;;;;;;;5051604;28;20095;-65
2022/01/20 03:54:27;;;;;;;23.20;3.83;;;;;;;;;;5051357;28;19967;-65
2022/01/20 03:56:53;;;;;;;19.60;3.15;;;;;;;;;;5050682;28;20086;-65
2022/01/20 03:59:18;;;;;;;32.03;3.60;;;;;;;;;;5051262;28;20041;-65
2022/01/20 04:01:45;;;;;;;22.83;3.75;;;;;;;;;;5050959;28;20044;-66
2022/01/20 04:04:11;;;;;;;25.15;3.13;;;;;;;;;;5050127;28;20044;-65
2022/01/20 04:06:37;;;;;;;18.23;3.40;;;;;;;;;;5050947;28;20033;-65
2022/01/20 04:09:03;;;;;;;30.52;3.53;;;;;;;;;;5050990;28;20037;-65
2022/01/20 04:11:30;;;;;;;23.75;2.97;;;;;;;;;;5050365;28;20120;-65
2022/01/20 04:13:57;;;;;;;26.88;3.00;;;;;;;;;;5050808;28;20091;-65
2022/01/20 04:16:37;;;;;;;23.67;3.25;;;;;;;;;;5050547;28;20033;-65
2022/01/20 04:19:08;;;;;;;13.98;2.95;;;;;;;;;;5050176;28;20045;-65
2022/01/20 04:21:35;;;;;;;18.40;3.33;;;;;;;;;;5050652;28;20037;-65
2022/01/20 04:24:02;;;;;;;19.33;2.83;;;;;;;;;;5050318;28;20713;-65
2022/01/20 04:26:28;;;;;;;19.45;2.13;;;;;;;;;;5060686;28;20522;-65
2022/01/20 04:28:56;;;;;;;19.27;2.35;;;;;;;;;;5070207;28;20052;-65
2022/01/20 04:31:26;;;;;;;18.58;2.50;;;;;;;;;;5070506;28;20048;-65
2022/01/20 04:33:52;;;;;;;16.98;4.07;;;;;;;;;;5069803;28;20413;-65
2022/01/20 04:36:18;;;;;;;16.83;2.45;;;;;;;;;;5070423;28;20048;-65
2022/01/20 04:38:45;;;;;;;18.85;2.80;;;;;;;;;;5070797;28;20036;-65
2022/01/20 04:41:11;;;;;;;10.30;2.15;;;;;;;;;;5069897;28;20052;-65
2022/01/20 04:43:37;;;;;;;18.08;2.38;;;;;;;;;;5102730;28;20098;-65
2022/01/20 04:46:11;;;;;;;19.88;3.53;;;;;;;;;;5070203;28;20047;-65
2022/01/20 04:57:20;;;;;;;18.88;2.67;;;;;;;;;;5046763;28;20144;-65
2022/01/20 04:59:46;;;;;;;14.57;2.38;;;;;;;;;;5068549;28;20121;-65
2022/01/20 05:02:13;;;;;;;11.80;1.80;;;;;;;;;;5069939;28;20047;-65
2022/01/20 05:04:39;;;;;;;18.92;2.20;;;;;;;;;;5102571;28;20503;-65
2022/01/20 05:07:06;;;;;;;14.82;2.42;;;;;;;;;;5070238;28;20063;-65
2022/01/20 05:09:32;;;;;;;25.30;3.40;;;;;;;;;;5070142;28;20367;-65
2022/01/20 05:12:09;;;;;;;15.93;2.63;;;;;;;;;;5069610;28;20047;-65
2022/01/20 05:14:35;;;;;;;13.38;1.70;;;;;;;;;;5070023;28;20036;-65
2022/01/20 05:17:01;;;;;;;24.52;2.90;;;;;;;;;;5069592;28;20051;-65
2022/01/20 05:19:28;;;;;;;15.15;2.45;;;;;;;;;;5070075;28;20516;-65
2022/01/20 05:21:54;;;;;;;21.92;3.22;;;;;;;;;;5070014;28;20086;-65
2022/01/20 05:24:22;;;;;;;15.02;2.08;;;;;;;;;;5069852;28;20040;-65
2022/01/20 05:26:50;;;;;;;8.48;2.33;;;;;;;;;;5055950;28;20060;-65
2022/01/20 05:29:16;;;;;;;28.42;3.45;;;;;;;;;;5052005;28;20029;-65
2022/01/20 05:31:42;;;;;;;14.70;2.13;;;;;;;;;;5054068;28;20083;-65
2022/01/20 05:34:08;;;;;;;21.63;2.63;;;;;;;;;;5053315;28;20040;-65
2022/01/20 05:36:34;;;;;;;18.52;2.45;;;;;;;;;;5054062;28;20044;-65
2022/01/20 05:39:00;;;;;;;15.05;2.28;;;;;;;;;;5053967;28;20538;-65
2022/01/20 05:41:26;;;;;;;16.85;2.08;;;;;;;;;;5053248;28;20408;-65
2022/01/20 05:43:52;;;;;;;16.88;2.20;;;;;;;;;;5053794;28;20049;-65
2022/01/20 05:46:23;;;;;;;9.20;1.88;;;;;;;;;;5053825;28;20459;-65
2022/01/20 05:48:49;;;;;;;11.57;1.80;;;;;;;;;;5052780;28;20049;-65
2022/01/20 05:51:15;;;;;;;14.60;1.90;;;;;;;;;;5053448;28;20037;-65
2022/01/20 05:53:42;;;;;;;10.45;1.70;;;;;;;;;;5053826;28;20041;-65
2022/01/20 05:56:08;;;;;;;14.18;1.70;;;;;;;;;;5053089;28;20101;-65
2022/01/20 05:58:36;;;;;;;12.77;1.80;;;;;;;;;;5053570;28;20544;-65
2022/01/20 06:01:06;;;;;;;13.43;1.90;;;;;;;;;;5053557;28;20464;-65
2022/01/20 06:03:38;;;;;;;12.13;1.60;;;;;;;;;;5052734;28;20462;-65
2022/01/20 06:06:05;;;;;;;10.60;1.80;;;;;;;;;;5053334;28;20047;-65
2022/01/20 06:08:31;;;;;;;10.85;1.75;;;;;;;;;;5053293;28;20531;-65
2022/01/20 06:10:56;;;;;;;11.45;2.20;;;;;;;;;;5052736;28;20112;-65
2022/01/20 06:13:22;;;;;;;11.93;1.42;;;;;;;;;;5053269;28;20491;-65
2022/01/20 06:15:49;;;;;;;8.98;1.50;;;;;;;;;;5053290;28;20044;-65
2022/01/20 06:18:15;;;;;;;11.70;1.80;;;;;;;;;;5052294;28;20171;-65
2022/01/20 06:20:41;;;;;;;12.30;2.08;;;;;;;;;;5053165;28;20044;-65
2022/01/20 06:23:10;;;;;;;14.45;1.73;;;;;;;;;;5052831;28;20041;-65
2022/01/20 06:25:37;;;;;;;11.43;1.92;;;;;;;;;;5055884;28;20034;-65
2022/01/20 06:28:03;;;;;;;11.77;2.47;;;;;;;;;;5072579;28;20080;-65
2022/01/20 06:30:31;;;;;;;17.67;2.10;;;;;;;;;;5072768;28;20040;-65
2022/01/20 06:32:57;;;;;;;7.90;1.85;;;;;;;;;;5072201;28;20044;-65
2022/01/20 06:35:23;;;;;;;12.45;2.58;;;;;;;;;;5072798;28;20453;-65
2022/01/20 06:37:49;;;;;;;17.20;2.10;;;;;;;;;;5072853;28;20032;-65
2022/01/20 06:40:15;;;;;;;10.43;2.15;;;;;;;;;;5071895;28;20072;-65
2022/01/20 06:42:41;;;;;;;14.15;2.08;;;;;;;;;;5072511;28;20451;-65
2022/01/20 06:45:09;;;;;;;19.42;2.13;;;;;;;;;;5072619;28;20051;-65
2022/01/20 06:47:35;;;;;;;14.82;2.13;;;;;;;;;;5072115;28;20036;-65
2022/01/20 06:50:01;;;;;;;16.75;2.58;;;;;;;;;;5071021;28;20080;-67
2022/01/20 06:52:28;;;;;;;24.90;3.70;;;;;;;;;;5072579;28;20036;-65
2022/01/20 06:54:54;;;;;;;15.57;2.28;;;;;;;;;;5072562;28;20040;-65
2022/01/20 06:57:20;;;;;;;17.30;3.03;;;;;;;;;;5073296;28;20036;-65
2022/01/20 06:59:46;;;;;;;20.42;3.22;;;;;;;;;;5072740;28;20040;-65
2022/01/20 07:02:13;;;;;;;12.25;2.17;;;;;;;;;;5059244;28;20032;-65
2022/01/20 07:04:39;;;;;;;14.13;2.63;;;;;;;;;;5068318;28;20051;-65
2022/01/20 07:07:05;;;;;;;16.10;2.15;;;;;;;;;;5073002;28;20754;-65
2022/01/20 07:09:34;;;;;;;13.00;1.73;;;;;;;;;;5071997;28;20076;-65
2022/01/20 07:12:00;;;;;;;12.30;2.13;;;;;;;;;;5073474;28;20459;-65
2022/01/20 07:14:28;;;;;;;13.95;2.15;;;;;;;;;;5072623;28;20528;-65
2022/01/20 07:16:54;;;;;;;13.27;2.72;;;;;;;;;;5071520;28;20032;-65
2022/01/20 07:19:21;;;;;;;18.08;3.35;;;;;;;;;;5060951;28;20539;-65
2022/01/20 07:21:47;;;;;;;12.00;1.92;;;;;;;;;;5071669;28;20036;-65
2022/01/20 07:24:13;;;;;;;13.30;2.33;;;;;;;;;;5072489;28;20125;-65
2022/01/20 07:26:39;;;;;;;19.63;2.30;;;;;;;;;;5072689;28;20056;-65
2022/01/20 07:29:05;;;;;;;15.68;2.47;;;;;;;;;;5072578;28;20045;-65
2022/01/20 07:31:31;;;;;;;14.57;1.98;;;;;;;;;;5070385;28;20045;-62
2022/01/20 07:33:58;;;;;;;15.25;2.53;;;;;;;;;;5063156;28;20032;-62
2022/01/20 07:36:24;;;;;;;18.63;2.85;;;;;;;;;;5068623;28;20051;-63
2022/01/20 07:38:50;;;;;;;17.40;2.30;;;;;;;;;;5070691;28;20131;-64
2022/01/20 07:41:16;;;;;;;15.27;2.20;;;;;;;;;;5064286;28;20601;-63
2022/01/20 07:43:42;;;;;;;12.40;2.42;;;;;;;;;;5071806;28;20054;-63
2022/01/20 07:46:08;;;;;;;9.93;1.95;;;;;;;;;;5070886;28;20151;-62
2022/01/20 07:48:34;;;;;;;22.25;2.47;;;;;;;;;;5071889;28;20048;-62
2022/01/20 07:51:01;;;;;;;21.00;2.78;;;;;;;;;;5071174;28;20040;-63
2022/01/20 07:53:27;;;;;;;15.25;2.75;;;;;;;;;;5070459;28;20116;-62
2022/01/20 07:55:53;;;;;;;18.70;2.25;;;;;;;;;;5070112;28;20119;-63
2022/01/20 07:58:19;;;;;;;13.88;2.40;;;;;;;;;;5070573;28;20048;-62
2022/01/20 08:00:45;;;;;;;18.60;2.00;;;;;;;;;;5069498;28;20056;-63
2022/01/20 08:03:11;;;;;;;17.27;2.35;;;;;;;;;;5071569;28;20079;-65
2022/01/20 08:05:38;;;;;;;14.70;2.45;;;;;;;;;;5071929;28;20132;-63
2022/01/20 08:08:04;;;;;;;14.85;2.17;;;;;;;;;;5070222;28;20040;-64
2022/01/20 08:10:30;;;;;;;17.02;3.05;;;;;;;;;;5071737;28;20068;-64
2022/01/20 08:12:56;;;;;;;18.08;2.55;;;;;;;;;;5071060;28;20040;-64
2022/01/20 08:15:22;;;;;;;15.40;2.70;;;;;;;;;;5070704;28;20044;-65
2022/01/20 08:17:49;;;;;;;13.13;2.60;;;;;;;;;;5071509;28;20078;-64
2022/01/20 08:20:15;;;;;;;17.45;2.45;;;;;;;;;;5071067;28;20060;-62
2022/01/20 08:22:41;;;;;;;13.50;2.70;;;;;;;;;;5070011;28;20494;-62
2022/01/20 08:25:11;;;;;;;17.27;2.22;;;;;;;;;;5070149;28;20040;-64
2022/01/20 08:27:38;;;;;;;12.95;2.28;;;;;;;;;;5069145;28;20076;-66
2022/01/20 08:30:05;;;;;;;20.00;2.30;;;;;;;;;;5067588;28;20041;-65
2022/01/20 08:32:31;;;;;;;16.05;2.38;;;;;;;;;;5070973;28;20441;-65
2022/01/20 08:34:57;;;;;;;14.95;2.50;;;;;;;;;;5069827;28;20047;-65
2022/01/20 08:37:25;;;;;;;13.95;2.65;;;;;;;;;;5070621;28;20058;-67
2022/01/20 08:39:51;;;;;;;15.90;2.10;;;;;;;;;;5069569;28;20056;-65
2022/01/20 08:42:17;;;;;;;10.45;2.30;;;;;;;;;;5070274;28;20419;-64
2022/01/20 08:44:43;;;;;;;14.20;2.75;;;;;;;;;;5068452;28;20064;-65
2022/01/20 08:47:16;;;;;;;18.48;2.20;;;;;;;;;;5070902;28;20094;-64
2022/01/20 08:49:43;;;;;;;15.13;2.58;;;;;;;;;;5070131;28;20095;-64
2022/01/20 08:52:09;;;;;;;16.38;2.20;;;;;;;;;;5070115;28;20094;-65
2022/01/20 08:54:35;;;;;;;10.05;2.13;;;;;;;;;;5070621;28;20045;-64
2022/01/20 08:57:01;;;;;;;18.70;3.03;;;;;;;;;;5070778;28;20040;-65
2022/01/20 08:59:27;;;;;;;12.55;2.53;;;;;;;;;;5070059;28;20048;-65
2022/01/20 09:01:53;;;;;;;10.15;2.40;;;;;;;;;;5070595;28;20474;-64
2022/01/20 09:04:19;;;;;;;18.10;2.22;;;;;;;;;;5070159;28;20548;-65
2022/01/20 09:06:45;;;;;;;15.35;2.50;;;;;;;;;;5060706;28;20052;-63
2022/01/20 09:09:12;;;;;;;11.95;2.20;;;;;;;;;;5061091;28;20075;-65
2022/01/20 09:11:50;;;;;;;12.93;1.80;;;;;;;;;;5070292;28;20051;-63
2022/01/20 09:17:00;;;;;;;9.77;1.20;;;;;;;;;;5068503;28;20063;-66
2022/01/20 09:19:26;;;;;;;8.45;1.45;;;;;;;;;;5070777;28;20045;-66
2022/01/20 09:21:52;;;;;;;11.02;1.40;;;;;;;;;;5069760;28;20041;-67
2022/01/20 09:24:18;;;;;;;9.88;1.60;;;;;;;;;;5070576;28;20410;-67
2022/01/20 09:26:44;;;;;;;11.32;1.40;;;;;;;;;;5069864;28;20057;-65
2022/01/20 09:29:10;;;;;;;11.57;1.20;;;;;;;;;;5069060;28;20037;-69
2022/01/20 09:31:38;;;;;;;10.05;1.73;;;;;;;;;;5070300;28;20505;-66
2022/01/20 09:34:05;;;;;;;16.67;2.47;;;;;;;;;;5069973;28;20482;-68
2022/01/20 09:36:31;;;;;;;16.23;2.45;;;;;;;;;;5069919;28;20364;-68
2022/01/20 09:38:57;;;;;;;10.85;1.67;;;;;;;;;;5069614;28;20041;-68
2022/01/20 09:41:23;;;;;;;13.45;1.75;;;;;;;;;;5065456;28;20542;-68
2022/01/20 09:43:51;;;;;;;10.50;2.08;;;;;;;;;;5052232;28;20124;-68
2022/01/20 09:46:18;;;;;;;11.68;2.42;;;;;;;;;;5068630;28;20094;-68
2022/01/20 09:48:44;;;;;;;11.50;2.38;;;;;;;;;;5060270;28;20124;-67
2022/01/20 09:51:13;;;;;;;9.05;1.40;;;;;;;;;;5069762;28;20496;-69
2022/01/20 09:53:39;;;;;;;14.63;2.35;;;;;;;;;;5067705;28;20504;-67
2022/01/20 09:56:06;;;;;;;15.07;2.03;;;;;;;;;;5070109;28;20143;-67
2022/01/20 09:58:32;;;;;;;17.15;2.00;;;;;;;;;;5067646;28;20052;-67
2022/01/20 10:01:01;;;;;;;16.10;1.95;;;;;;;;;;5069628;28;20047;-68
2022/01/20 10:03:29;;;;;;;8.52;1.98;;;;;;;;;;5067120;28;20055;-67
2022/01/20 10:05:55;;;;;;;9.63;1.80;;;;;;;;;;5063458;28;20037;-67
2022/01/20 10:08:23;;;;;;;11.45;1.98;;;;;;;;;;5060567;28;20312;-65
2022/01/20 10:10:49;;;;;;;11.40;1.88;;;;;;;;;;5070106;28;20040;-67
2022/01/20 10:13:16;;;;;;;13.23;2.30;;;;;;;;;;5068354;28;20607;-65
2022/01/20 10:15:42;;;;;;;14.00;2.13;;;;;;;;;;5073017;28;20044;-65
2022/01/20 10:18:10;;;;;;;13.55;2.33;;;;;;;;;;5073616;28;20041;-65
2022/01/20 10:20:36;;;;;;;8.98;1.77;;;;;;;;;;5073080;28;20041;-65
2022/01/20 10:23:03;;;;;;;13.65;1.95;;;;;;;;;;5073354;28;20079;-66
2022/01/20 10:25:34;;;;;;;12.13;2.00;;;;;;;;;;5073118;28;20071;-66
2022/01/20 10:28:00;;;;;;;10.73;1.70;;;;;;;;;;5070090;28;20064;-67
2022/01/20 10:30:28;;;;;;;15.95;2.40;;;;;;;;;;5061762;28;20033;-66
2022/01/20 10:32:58;;;;;;;15.77;2.28;;;;;;;;;;5085670;28;20047;-66
2022/01/20 10:35:26;;;;;;;13.10;2.70;;;;;;;;;;5036956;28;20127;-66
2022/01/20 10:37:59;;;;;;;13.48;1.67;;;;;;;;;;5054895;28;20044;-68
2022/01/20 10:40:25;;;;;;;12.93;2.15;;;;;;;;;;5071829;28;20049;-66
2022/01/20 10:42:51;;;;;;;12.15;1.83;;;;;;;;;;5072558;28;20047;-66
2022/01/20 10:45:21;;;;;;;9.02;1.83;;;;;;;;;;5070488;28;20037;-66
2022/01/20 10:47:49;;;;;;;13.68;2.03;;;;;;;;;;5060668;28;20045;-66
2022/01/20 10:50:17;;;;;;;8.52;1.60;;;;;;;;;;5071898;28;20386;-66
2022/01/20 10:52:44;;;;;;;9.38;1.65;;;;;;;;;;5068776;28;20072;-66
2022/01/20 10:55:20;;;;;;;6.93;1.23;;;;;;;;;;5072882;28;20048;-66
2022/01/20 10:57:46;;;;;;;9.88;1.20;;;;;;;;;;5071847;28;20081;-65
2022/01/20 11:00:15;;;;;;;7.35;0.90;;;;;;;;;;5072901;28;20071;-67
2022/01/20 11:02:42;;;;;;;4.47;1.25;;;;;;;;;;5072572;28;20040;-66
2022/01/20 11:05:10;;;;;;;10.55;1.38;;;;;;;;;;5071948;28;20040;-67
2022/01/20 11:07:39;;;;;;;7.13;1.80;;;;;;;;;;5073091;28;20048;-66
2022/01/20 11:10:07;;;;;;;7.80;1.30;;;;;;;;;;5072823;28;20052;-65
2022/01/20 11:12:36;;;;;;;6.28;1.63;;;;;;;;;;5072397;28;20782;-65
2022/01/20 11:15:06;;;;;;;10.13;1.45;;;;;;;;;;5071877;28;20041;-67
2022/01/20 11:17:34;;;;;;;10.20;1.80;;;;;;;;;;5072588;28;20052;-67
2022/01/20 11:20:06;;;;;;;13.65;2.35;;;;;;;;;;5072269;28;20052;-66
2022/01/20 11:22:33;;;;;;;11.90;2.17;;;;;;;;;;5072759;28;20044;-67
2022/01/20 11:25:00;;;;;;;9.73;2.15;;;;;;;;;;5072128;28;20048;-67
2022/01/20 11:27:38;;;;;;;13.52;1.77;;;;;;;;;;5070538;28;20048;-65
2022/01/20 11:30:39;;;;;;;11.52;2.03;;;;;;;;;;5072035;28;20072;-66
2022/01/20 11:33:05;;;;;;;8.10;1.40;;;;;;;;;;5037140;28;20051;-66
2022/01/20 11:35:43;;;;;;;8.40;1.55;;;;;;;;;;5071308;28;20040;-65
2022/01/20 11:38:11;;;;;;;10.07;1.50;;;;;;;;;;5071939;28;20048;-65
2022/01/20 11:40:48;;;;;;;12.15;2.00;;;;;;;;;;5072307;28;20286;-65
2022/01/20 11:43:15;;;;;;;11.52;1.70;;;;;;;;;;5071925;28;20040;-66
2022/01/20 11:45:45;;;;;;;13.88;2.05;;;;;;;;;;5072402;28;20098;-65
2022/01/20 11:48:16;;;;;;;11.32;1.58;;;;;;;;;;5072480;28;20045;-66
2022/01/20 11:50:45;;;;;;;16.50;2.10;;;;;;;;;;5071574;28;20044;-65
2022/01/20 11:53:13;;;;;;;12.95;1.60;;;;;;;;;;5071876;28;20116;-66
2022/01/20 11:55:46;;;;;;;14.55;2.60;;;;;;;;;;5072572;28;20483;-65
2022/01/20 11:58:13;;;;;;;15.25;2.33;;;;;;;;;;5071029;28;20226;-66
2022/01/20 12:00:41;;;;;;;17.80;2.40;;;;;;;;;;5072282;28;20041;-66
2022/01/20 12:03:14;;;;;;;15.50;2.63;;;;;;;;;;5070210;28;20048;-67
2022/01/20 12:05:40;;;;;;;15.38;2.10;;;;;;;;;;5071069;28;20128;-66
2022/01/20 12:08:10;;;;;;;15.27;2.85;;;;;;;;;;5071966;28;20478;-70
2022/01/20 12:10:36;;;;;;;13.27;1.92;;;;;;;;;;5069704;28;20395;-67
2022/01/20 12:13:07;;;;;;;9.40;2.22;;;;;;;;;;5068764;28;20037;-66
2022/01/20 12:15:33;;;;;;;11.55;1.90;;;;;;;;;;5053246;28;20037;-66
2022/01/20 12:17:59;;;;;;;11.85;1.90;;;;;;;;;;5052274;28;20047;-68
2022/01/20 12:20:26;;;;;;;14.00;2.63;;;;;;;;;;5069546;28;20162;-67
2022/01/20 12:22:53;;;;;;;17.42;2.25;;;;;;;;;;5070844;28;20127;-66
2022/01/20 12:25:26;;;;;;;17.90;2.13;;;;;;;;;;5071108;28;20032;-67
2022/01/20 12:28:01;;;;;;;14.63;2.40;;;;;;;;;;5069768;28;20094;-66
2022/01/20 12:30:27;;;;;;;10.32;2.05;;;;;;;;;;5069396;28;20044;-68
2022/01/20 12:33:01;;;;;;;12.63;2.00;;;;;;;;;;5069723;28;20044;-66
2022/01/20 12:35:37;;;;;;;18.85;2.88;;;;;;;;;;5070638;28;20060;-68
2022/01/20 12:38:25;;;;;;;9.60;1.88;;;;;;;;;;5070558;28;20042;-68
2022/01/20 12:41:05;;;;;;;15.20;2.35;;;;;;;;;;5069837;28;20052;-68
2022/01/20 12:43:44;;;;;;;14.13;3.05;;;;;;;;;;5067557;28;20618;-68
2022/01/20 12:46:16;;;;;;;17.70;2.25;;;;;;;;;;5102724;28;20116;-69
2022/01/20 12:48:55;;;;;;;18.85;2.35;;;;;;;;;;5067772;28;20862;-67
2022/01/20 12:51:29;;;;;;;22.52;2.85;;;;;;;;;;5070861;28;20103;-66
2022/01/20 12:54:04;;;;;;;15.85;2.33;;;;;;;;;;5070908;28;20047;-66
2022/01/20 12:56:31;;;;;;;16.60;2.33;;;;;;;;;;5070184;28;20085;-66
2022/01/20 12:58:57;;;;;;;11.90;2.33;;;;;;;;;;5069396;28;20874;-66
2022/01/20 13:01:23;;;;;;;17.60;2.60;;;;;;;;;;5069114;28;20036;-66
2022/01/20 13:03:50;;;;;;;13.68;2.28;;;;;;;;;;5070182;28;20036;-66
2022/01/20 13:06:26;;;;;;;15.05;1.92;;;;;;;;;;5071133;28;20059;-67
2022/01/20 13:08:59;;;;;;;12.40;2.40;;;;;;;;;;5070475;28;20378;-68
2022/01/20 13:11:54;;;;;;;13.57;2.92;;;;;;;;;;5070284;28;20093;-67
2022/01/20 13:14:22;;;;;;;14.43;2.13;;;;;;;;;;5063690;28;20044;-66
2022/01/20 13:16:57;;;;;;;9.13;1.75;;;;;;;;;;5069325;28;20596;-66
2022/01/20 13:19:37;;;;;;;9.40;1.00;;;;;;;;;;5070218;28;20071;-64
2022/01/20 13:22:06;;;;;;;3.80;0.80;;;;;;;;;;5070336;28;20053;-65
2022/01/20 13:24:33;;;;;;;9.02;1.45;;;;;;;;;;5071156;28;20059;-66
2022/01/20 13:26:59;;;;;;;9.90;1.75;;;;;;;;;;5069652;28;20052;-66
2022/01/20 13:29:27;;;;;;;12.10;1.90;;;;;;;;;;5069911;28;20044;-65
2022/01/20 13:31:57;;;;;;;7.97;1.65;;;;;;;;;;5070398;28;20068;-66
2022/01/20 13:34:23;;;;;;;19.88;1.88;;;;;;;;;;5069897;28;20048;-64
2022/01/20 13:36:54;;;;;;;8.13;1.73;;;;;;;;;;5069532;28;20475;-64
2022/01/20 13:39:33;;;;;;;13.95;1.80;;;;;;;;;;5071015;28;20119;-66
2022/01/20 13:42:21;;;;;;;17.70;2.45;;;;;;;;;;5068268;28;20082;-65
2022/01/20 13:45:05;;;;;;;15.50;2.03;;;;;;;;;;5070803;28;20205;-65
2022/01/20 13:47:31;;;;;;;14.32;2.45;;;;;;;;;;5069631;28;20061;-67
2022/01/20 13:49:57;;;;;;;13.85;1.92;;;;;;;;;;5070014;28;20095;-65
2022/01/20 13:52:24;;;;;;;11.52;2.05;;;;;;;;;;5074460;28;20086;-64
2022/01/20 13:54:52;;;;;;;16.30;2.00;;;;;;;;;;5074427;28;20044;-67
2022/01/20 13:57:20;;;;;;;13.95;2.63;;;;;;;;;;5072497;28;20041;-66
2022/01/20 13:59:50;;;;;;;15.38;2.40;;;;;;;;;;5050344;28;20049;-63
2022/01/20 14:02:16;;;;;;;13.85;2.13;;;;;;;;;;5073969;28;20090;-65
2022/01/20 14:04:42;;;;;;;11.20;2.22;;;;;;;;;;5073775;28;20525;-65
2022/01/20 14:07:08;;;;;;;9.75;1.67;;;;;;;;;;5072809;28;20469;-65
2022/01/20 14:09:34;;;;;;;12.32;2.10;;;;;;;;;;5073422;28;20051;-65
2022/01/20 14:12:00;;;;;;;6.53;1.35;;;;;;;;;;5073480;28;20417;-65
2022/01/20 14:14:26;;;;;;;9.25;1.63;;;;;;;;;;5073403;28;20116;-65
2022/01/20 14:16:53;;;;;;;11.65;1.73;;;;;;;;;;5071735;28;20045;-65
2022/01/20 14:19:23;;;;;;;10.15;2.28;;;;;;;;;;5065270;28;20055;-65
2022/01/20 14:21:50;;;;;;;11.75;1.77;;;;;;;;;;5073565;28;20173;-65
2022/01/20 14:24:16;;;;;;;10.48;1.77;;;;;;;;;;5073375;28;20033;-66
2022/01/20 14:26:44;;;;;;;11.35;2.78;;;;;;;;;;5072638;28;20060;-66
2022/01/20 14:29:11;;;;;;;14.93;2.50;;;;;;;;;;5071072;28;20184;-67
2022/01/20 14:31:37;;;;;;;7.75;1.10;;;;;;;;;;5073176;28;20477;-66
2022/01/20 14:34:03;;;;;;;7.78;1.23;;;;;;;;;;5072920;28;20041;-65
2022/01/20 14:36:29;;;;;;;7.70;1.30;;;;;;;;;;5074009;28;20040;-65
2022/01/20 14:38:55;;;;;;;8.40;1.38;;;;;;;;;;5073305;28;20467;-64
2022/01/20 14:41:21;;;;;;;7.55;1.30;;;;;;;;;;5072823;28;20048;-64
2022/01/20 14:43:47;;;;;;;10.85;2.05;;;;;;;;;;5072926;28;20050;-64
2022/01/20 14:46:13;;;;;;;8.27;1.98;;;;;;;;;;5073346;28;20442;-64
2022/01/20 14:48:39;;;;;;;14.52;1.63;;;;;;;;;;5073068;28;20121;-65
2022/01/20 14:51:08;;;;;;;9.80;1.50;;;;;;;;;;5071665;28;20055;-64
2022/01/20 14:53:34;;;;;;;6.25;1.15;;;;;;;;;;5072868;28;20094;-65
2022/01/20 14:56:00;;;;;;;7.05;1.02;;;;;;;;;;5072496;28;20719;-66
2022/01/20 14:58:27;;;;;;;10.23;1.65;;;;;;;;;;5072928;28;20054;-65
2022/01/20 15:00:53;;;;;;;7.43;1.25;;;;;;;;;;5072804;28;20051;-65
2022/01/20 15:03:19;;;;;;;9.93;0.93;;;;;;;;;;5071338;28;20039;-66
2022/01/20 15:05:47;;;;;;;9.77;1.52;;;;;;;;;;5072723;28;20433;-67
2022/01/20 15:08:13;;;;;;;11.57;2.00;;;;;;;;;;5071056;28;20044;-66
2022/01/20 15:10:39;;;;;;;9.15;1.58;;;;;;;;;;5071975;28;20181;-66
2022/01/20 15:13:05;;;;;;;7.93;1.23;;;;;;;;;;5072051;28;20047;-67
2022/01/20 15:15:31;;;;;;;14.25;1.83;;;;;;;;;;5072329;28;20120;-68
2022/01/20 15:17:58;;;;;;;9.60;1.45;;;;;;;;;;5071975;28;20042;-67
2022/01/20 15:20:24;;;;;;;11.00;2.22;;;;;;;;;;5071593;28;20051;-66
2022/01/20 15:22:50;;;;;;;11.88;2.08;;;;;;;;;;5072592;28;20124;-66
2022/01/20 15:25:16;;;;;;;11.88;2.17;;;;;;;;;;5071938;28;20036;-65
2022/01/20 15:27:42;;;;;;;11.00;2.03;;;;;;;;;;5072035;28;20119;-65
2022/01/20 15:30:09;;;;;;;10.65;1.98;;;;;;;;;;5071696;28;20119;-66
2022/01/20 15:32:35;;;;;;;12.85;2.40;;;;;;;;;;5071568;28;20432;-67
2022/01/20 15:35:01;;;;;;;14.48;2.83;;;;;;;;;;5070514;28;20032;-68
2022/01/20 15:37:27;;;;;;;8.98;1.77;;;;;;;;;;5105013;28;20048;-67